Time;durP1;ratioP1;P1;durP2;ratioP2;P2;SDS_P1;SDS_P2;PMS_P1;PMS_P2;Temp;Humidity;BMP_temperature;BMP_pressure;BME280_temperature;BME280_humidity;BME280_pressure;Samples;Min_cycle;Max_cycle;Signal;HPM_P1;HPM_P2
2023/11/02 00:02:03;;;;;;;3.03;1.17;;;10.40;99.90;;;;;;5093915;28;20525;-76
2023/11/02 00:04:29;;;;;;;5.30;1.42;;;10.40;99.90;;;;;;5077256;28;20036;-76
2023/11/02 00:06:57;;;;;;;4.90;1.40;;;10.40;99.90;;;;;;5094162;28;20392;-76
2023/11/02 00:09:39;;;;;;;5.05;1.65;;;10.30;99.90;;;;;;5094127;28;20563;-75
2023/11/02 00:12:07;;;;;;;4.78;1.25;;;10.30;99.90;;;;;;5093551;28;20522;-76
2023/11/02 00:14:48;;;;;;;2.78;1.20;;;10.30;99.90;;;;;;5094092;28;20101;-76
2023/11/02 00:17:35;;;;;;;4.22;1.52;;;10.30;99.90;;;;;;5093875;28;20036;-76
2023/11/02 00:20:11;;;;;;;3.65;1.48;;;10.30;99.90;;;;;;5094125;28;20449;-76
2023/11/02 00:22:45;;;;;;;3.80;1.13;;;10.30;99.90;;;;;;5093952;28;20130;-75
2023/11/02 00:25:27;;;;;;;5.03;2.88;;;10.30;99.90;;;;;;5076868;28;20047;-75
2023/11/02 00:27:53;;;;;;;4.35;1.23;;;10.20;99.90;;;;;;5093763;28;20040;-76
2023/11/02 00:30:18;;;;;;;4.30;1.58;;;10.20;99.90;;;;;;5093752;28;20047;-76
2023/11/02 00:32:44;;;;;;;3.55;1.17;;;10.20;99.90;;;;;;5093180;28;20042;-76
2023/11/02 00:35:10;;;;;;;3.55;2.22;;;10.20;99.90;;;;;;5076663;28;20044;-76
2023/11/02 00:37:39;;;;;;;4.18;1.58;;;10.20;99.90;;;;;;5093398;28;20131;-76
2023/11/02 00:40:05;;;;;;;3.80;1.38;;;10.10;99.90;;;;;;5093369;28;20119;-75
2023/11/02 00:42:31;;;;;;;4.10;1.58;;;10.10;99.90;;;;;;5093244;28;20040;-76
2023/11/02 00:44:56;;;;;;;4.68;1.33;;;10.10;99.90;;;;;;5093437;28;20500;-76
2023/11/02 00:47:22;;;;;;;3.80;1.67;;;10.10;99.90;;;;;;5093315;28;20040;-76
2023/11/02 00:49:49;;;;;;;6.00;1.70;;;10.10;99.90;;;;;;5093213;28;20067;-76
2023/11/02 00:52:16;;;;;;;3.03;1.13;;;10.00;99.90;;;;;;5092748;28;20075;-76
2023/11/02 00:54:55;;;;;;;7.50;1.70;;;10.00;99.90;;;;;;5093205;28;20039;-76
2023/11/02 00:57:26;;;;;;;4.57;1.63;;;9.90;99.90;;;;;;5093457;28;20449;-76
2023/11/02 00:59:52;;;;;;;5.25;1.67;;;9.90;99.90;;;;;;5092949;28;20072;-76
2023/11/02 01:02:18;;;;;;;7.03;1.80;;;9.90;99.90;;;;;;5092718;28;20507;-76
2023/11/02 01:04:43;;;;;;;2.90;1.20;;;9.90;99.90;;;;;;5093213;28;20494;-76
2023/11/02 01:07:14;;;;;;;3.97;1.50;;;9.90;99.90;;;;;;5092866;28;20036;-76
2023/11/02 01:09:45;;;;;;;2.85;1.02;;;9.90;99.90;;;;;;5092818;28;20040;-75
2023/11/02 01:12:36;;;;;;;10.80;2.83;;;9.80;99.90;;;;;;5092447;28;20054;-76
2023/11/02 01:15:06;;;;;;;9.30;1.83;;;9.80;99.90;;;;;;5093041;28;20380;-76
2023/11/02 01:17:41;;;;;;;7.15;1.83;;;9.90;99.90;;;;;;5092837;28;20040;-77
2023/11/02 01:20:10;;;;;;;5.03;1.73;;;9.80;99.90;;;;;;5092662;28;20036;-75
2023/11/02 01:22:54;;;;;;;4.15;1.90;;;9.80;99.90;;;;;;5075455;28;20052;-76
2023/11/02 01:25:22;;;;;;;3.88;1.70;;;9.80;99.90;;;;;;5092886;28;20075;-76
2023/11/02 01:27:49;;;;;;;3.70;1.75;;;9.90;99.90;;;;;;5092440;28;20048;-75
2023/11/02 01:30:18;;;;;;;5.65;1.80;;;9.80;99.90;;;;;;5092331;28;20048;-76
2023/11/02 01:32:45;;;;;;;4.70;1.80;;;9.80;99.90;;;;;;5092070;28;20499;-76
2023/11/02 01:35:34;;;;;;;5.10;1.50;;;9.80;99.90;;;;;;5092330;28;20500;-75
2023/11/02 01:38:00;;;;;;;6.05;1.42;;;9.80;99.90;;;;;;5080327;28;20048;-76
2023/11/02 01:41:00;;;;;;;7.88;1.40;;;9.80;99.90;;;;;;5092400;28;20495;-76
2023/11/02 01:43:56;;;;;;;5.30;1.65;;;9.80;99.90;;;;;;5091854;28;20070;-76
2023/11/02 01:46:47;;;;;;;5.38;1.88;;;9.80;99.90;;;;;;5092202;28;20050;-76
2023/11/02 01:49:19;;;;;;;3.65;1.38;;;9.70;99.90;;;;;;5092355;28;20048;-76
2023/11/02 01:52:28;;;;;;;4.40;1.30;;;9.80;99.90;;;;;;5091650;28;20132;-76
2023/11/02 01:55:20;;;;;;;4.53;1.80;;;9.70;99.90;;;;;;5092273;28;20036;-75
2023/11/02 01:58:08;;;;;;;3.13;1.20;;;9.70;99.90;;;;;;5093324;28;20525;-75
2023/11/02 02:00:48;;;;;;;4.50;1.30;;;9.70;99.90;;;;;;5093077;28;20044;-76
2023/11/02 02:03:26;;;;;;;6.32;1.63;;;9.70;99.90;;;;;;5090963;28;20075;-75
2023/11/02 02:06:18;;;;;;;7.30;2.58;;;9.70;99.90;;;;;;5091775;28;20071;-75
2023/11/02 02:09:15;;;;;;;3.97;1.23;;;9.70;99.90;;;;;;5074798;28;20392;-76
2023/11/02 02:11:56;;;;;;;4.78;1.38;;;9.70;99.90;;;;;;5091537;28;20032;-75
2023/11/02 02:14:28;;;;;;;3.55;1.35;;;9.70;99.90;;;;;;5091775;28;20036;-75
2023/11/02 02:17:19;;;;;;;3.83;2.08;;;9.70;99.90;;;;;;5091487;28;20046;-75
2023/11/02 02:20:04;;;;;;;5.50;1.30;;;9.70;99.90;;;;;;5092936;28;20076;-75
2023/11/02 02:22:55;;;;;;;2.63;1.35;;;9.70;99.90;;;;;;5092739;28;20098;-75
2023/11/02 02:25:52;;;;;;;4.80;1.38;;;9.70;99.90;;;;;;5091664;28;20039;-75
2023/11/02 02:28:48;;;;;;;6.57;1.80;;;9.60;99.90;;;;;;5091342;28;20150;-75
2023/11/02 02:31:21;;;;;;;5.78;1.60;;;9.60;99.90;;;;;;5090008;28;20072;-75
2023/11/02 02:34:23;;;;;;;5.30;1.50;;;9.70;99.90;;;;;;5093025;28;20150;-76
2023/11/02 02:37:14;;;;;;;5.35;2.15;;;9.60;99.90;;;;;;5091514;28;20446;-75
2023/11/02 02:39:43;;;;;;;2.78;1.40;;;9.60;99.90;;;;;;5074600;28;20487;-76
2023/11/02 02:42:13;;;;;;;4.63;1.42;;;9.60;99.90;;;;;;5115368;22;20062;-72
2023/11/02 02:44:41;;;;;;;3.25;1.52;;;9.70;99.90;;;;;;5091984;28;20036;-72
2023/11/02 02:47:08;;;;;;;4.22;1.85;;;9.70;99.90;;;;;;5073813;28;20040;-72
2023/11/02 02:49:49;;;;;;;2.95;1.30;;;9.70;99.90;;;;;;5091391;28;20123;-72
2023/11/02 02:52:19;;;;;;;2.95;1.65;;;9.70;99.90;;;;;;5073641;28;20444;-72
2023/11/02 02:54:48;;;;;;;4.07;1.38;;;9.70;99.90;;;;;;5073082;28;20119;-72
2023/11/02 02:57:17;;;;;;;6.22;1.83;;;9.70;99.90;;;;;;5073679;28;20118;-72
2023/11/02 02:59:48;;;;;;;3.08;1.50;;;9.80;99.90;;;;;;5092092;28;20032;-72
2023/11/02 03:02:16;;;;;;;2.40;1.38;;;9.70;99.90;;;;;;5073458;28;20085;-72
2023/11/02 03:04:45;;;;;;;3.92;1.40;;;9.70;99.90;;;;;;5091951;28;20521;-72
2023/11/02 03:07:14;;;;;;;4.55;2.13;;;9.70;99.90;;;;;;5073979;28;20035;-72
2023/11/02 03:09:43;;;;;;;10.68;1.83;;;9.70;99.90;;;;;;5091844;28;20503;-72
2023/11/02 03:12:11;;;;;;;4.63;1.85;;;9.70;99.90;;;;;;5073534;28;20048;-72
2023/11/02 03:14:40;;;;;;;6.53;1.33;;;9.60;99.90;;;;;;5091992;28;20415;-72
2023/11/02 03:17:24;;;;;;;3.75;1.60;;;9.70;99.90;;;;;;5091850;28;20531;-72
2023/11/02 03:19:50;;;;;;;5.82;1.60;;;9.70;99.90;;;;;;5091856;28;20125;-72
2023/11/02 03:22:18;;;;;;;2.97;1.10;;;9.70;99.90;;;;;;5091770;28;20044;-72
2023/11/02 03:25:08;;;;;;;6.22;1.85;;;9.60;99.90;;;;;;5073816;28;20040;-72
2023/11/02 03:28:09;;;;;;;5.25;1.27;;;9.60;99.90;;;;;;5079096;28;20128;-72
2023/11/02 03:30:54;;;;;;;2.38;1.42;;;9.60;99.90;;;;;;5073581;28;20085;-72
2023/11/02 03:33:32;;;;;;;3.80;1.50;;;9.70;99.90;;;;;;5073439;28;20044;-73
2023/11/02 03:36:12;;;;;;;4.10;1.33;;;9.70;99.90;;;;;;5091672;28;20079;-72
2023/11/02 03:38:54;;;;;;;1.88;1.30;;;9.70;99.90;;;;;;5091776;28;20071;-72
2023/11/02 03:41:31;;;;;;;4.65;1.75;;;9.70;99.90;;;;;;5091522;28;20123;-72
2023/11/02 03:44:03;;;;;;;2.75;1.35;;;9.70;99.90;;;;;;5091513;28;20059;-72
2023/11/02 03:47:06;;;;;;;3.40;1.42;;;9.80;99.90;;;;;;5091578;28;20044;-72
2023/11/02 03:49:50;;;;;;;1.80;1.20;;;9.80;99.90;;;;;;5091668;28;20036;-72
2023/11/02 03:52:36;;;;;;;3.97;1.98;;;9.70;99.90;;;;;;5091254;28;20063;-72
2023/11/02 03:55:07;;;;;;;4.03;0.95;;;9.80;99.90;;;;;;5091477;28;20407;-72
2023/11/02 03:57:48;;;;;;;4.10;0.82;;;9.80;99.90;;;;;;5091527;28;20044;-73
2023/11/02 04:00:15;;;;;;;5.78;1.15;;;9.80;99.90;;;;;;5091370;28;20431;-72
2023/11/02 04:03:01;;;;;;;3.00;1.30;;;9.80;99.90;;;;;;5091262;28;20032;-72
2023/11/02 04:05:28;;;;;;;3.75;1.08;;;9.90;99.90;;;;;;5073614;28;20047;-72
2023/11/02 04:08:18;;;;;;;3.47;1.00;;;9.90;99.90;;;;;;5091495;28;20036;-72
2023/11/02 04:11:02;;;;;;;1.52;0.80;;;9.90;99.90;;;;;;5091383;28;20035;-72
2023/11/02 04:13:40;;;;;;;3.58;1.30;;;10.00;99.90;;;;;;5091116;28;20043;-72
2023/11/02 04:16:06;;;;;;;1.88;1.08;;;10.00;99.90;;;;;;5091523;28;20044;-72
2023/11/02 04:18:32;;;;;;;3.67;0.90;;;10.10;99.90;;;;;;5091208;28;20438;-72
2023/11/02 04:20:58;;;;;;;2.85;1.08;;;10.00;99.90;;;;;;5091313;28;20040;-72
2023/11/02 04:23:24;;;;;;;3.13;1.23;;;10.10;99.90;;;;;;5091076;28;20093;-72
2023/11/02 04:25:54;;;;;;;5.13;1.00;;;10.10;99.90;;;;;;5092515;28;20671;-72
2023/11/02 04:28:20;;;;;;;2.08;1.30;;;10.10;99.90;;;;;;5094796;28;20148;-72
2023/11/02 04:30:47;;;;;;;4.05;1.00;;;10.10;99.90;;;;;;5094737;28;20556;-72
2023/11/02 04:33:13;;;;;;;5.28;0.80;;;10.10;99.90;;;;;;5076758;28;20059;-72
2023/11/02 04:35:39;;;;;;;9.93;2.90;;;10.20;99.90;;;;;;5076746;28;20449;-72
2023/11/02 04:38:07;;;;;;;1.38;0.90;;;10.20;99.90;;;;;;5076809;28;20425;-72
2023/11/02 04:40:33;;;;;;;3.70;1.20;;;10.20;99.90;;;;;;5076490;28;20128;-72
2023/11/02 04:43:02;;;;;;;2.75;0.93;;;10.20;99.90;;;;;;5076253;28;20071;-72
2023/11/02 04:45:28;;;;;;;5.72;0.77;;;10.20;99.90;;;;;;5094597;28;20527;-72
2023/11/02 04:47:54;;;;;;;4.38;1.13;;;10.20;99.90;;;;;;5094677;28;20032;-73
2023/11/02 04:50:20;;;;;;;2.03;0.90;;;10.20;99.90;;;;;;5076288;28;20047;-72
2023/11/02 04:52:48;;;;;;;3.30;1.02;;;10.20;99.90;;;;;;5076007;28;20558;-72
2023/11/02 04:55:13;;;;;;;2.70;0.80;;;10.20;99.90;;;;;;5094371;28;20550;-72
2023/11/02 04:57:39;;;;;;;8.50;1.70;;;10.20;99.90;;;;;;5094371;28;20036;-72
2023/11/02 05:00:05;;;;;;;3.22;0.90;;;10.20;99.90;;;;;;5076171;28;20036;-72
2023/11/02 05:02:31;;;;;;;2.58;0.68;;;10.20;99.90;;;;;;5094163;28;20403;-72
2023/11/02 05:04:57;;;;;;;4.63;1.00;;;10.30;99.90;;;;;;5094315;28;20040;-72
2023/11/02 05:07:23;;;;;;;3.40;0.80;;;10.30;99.90;;;;;;5094167;28;20495;-73
2023/11/02 05:09:48;;;;;;;2.83;1.02;;;10.40;99.90;;;;;;5094022;28;20127;-72
2023/11/02 05:12:14;;;;;;;3.22;0.90;;;10.40;99.90;;;;;;5093987;28;20503;-73
2023/11/02 05:14:40;;;;;;;3.58;0.70;;;10.40;99.90;;;;;;5094263;28;20046;-72
2023/11/02 05:17:05;;;;;;;2.70;0.85;;;10.40;99.90;;;;;;5094073;28;20039;-72
2023/11/02 05:19:31;;;;;;;11.68;1.13;;;10.50;99.90;;;;;;5094010;28;20032;-72
2023/11/02 05:21:56;;;;;;;3.85;0.80;;;10.50;99.90;;;;;;5093533;28;20040;-72
2023/11/02 05:24:22;;;;;;;6.35;1.83;;;10.50;99.90;;;;;;5093764;28;20039;-72
2023/11/02 05:26:48;;;;;;;3.60;0.93;;;10.50;99.90;;;;;;5094038;28;20044;-72
2023/11/02 05:29:13;;;;;;;4.95;1.00;;;10.50;99.90;;;;;;5093901;28;20499;-73
2023/11/02 05:31:39;;;;;;;2.05;1.75;;;10.50;99.90;;;;;;5093372;28;20112;-73
2023/11/02 05:34:04;;;;;;;3.47;0.75;;;10.60;99.90;;;;;;5093656;28;20039;-72
2023/11/02 05:36:30;;;;;;;3.80;0.82;;;10.60;99.90;;;;;;5093266;28;20503;-73
2023/11/02 05:38:56;;;;;;;3.95;0.98;;;10.60;99.90;;;;;;5092902;28;20043;-73
2023/11/02 05:41:22;;;;;;;2.97;1.08;;;10.60;99.90;;;;;;5093469;28;20131;-73
2023/11/02 05:43:48;;;;;;;4.75;1.10;;;10.60;99.90;;;;;;5093338;28;20105;-73
2023/11/02 05:46:13;;;;;;;2.60;0.90;;;10.60;99.90;;;;;;5093525;28;20032;-73
2023/11/02 05:48:39;;;;;;;2.55;1.10;;;10.60;99.90;;;;;;5093494;28;20117;-73
2023/11/02 05:51:05;;;;;;;3.70;1.40;;;10.60;99.90;;;;;;5092980;28;20599;-73
2023/11/02 05:53:30;;;;;;;6.35;1.40;;;10.60;99.90;;;;;;5093236;28;20047;-73
2023/11/02 05:55:56;;;;;;;2.95;0.90;;;10.60;99.90;;;;;;5093391;28;20399;-72
2023/11/02 05:58:22;;;;;;;3.97;1.20;;;10.60;99.90;;;;;;5093279;28;20032;-73
2023/11/02 06:00:48;;;;;;;3.95;1.50;;;10.70;99.90;;;;;;5074889;28;20036;-72
2023/11/02 06:03:14;;;;;;;5.28;1.15;;;10.70;99.90;;;;;;5092949;28;20043;-73
2023/11/02 06:05:39;;;;;;;7.15;1.13;;;10.70;99.90;;;;;;5093028;28;20040;-72
2023/11/02 06:08:05;;;;;;;4.10;1.02;;;10.70;99.90;;;;;;5092923;28;20039;-73
2023/11/02 06:10:31;;;;;;;3.08;1.58;;;10.80;99.90;;;;;;5093127;28;20036;-72
2023/11/02 06:12:57;;;;;;;3.40;1.10;;;10.80;99.90;;;;;;5074413;28;20427;-73
2023/11/02 06:15:23;;;;;;;4.75;1.48;;;10.80;99.90;;;;;;5074652;28;20051;-72
2023/11/02 06:17:48;;;;;;;5.32;0.80;;;10.90;99.90;;;;;;5074940;28;20032;-73
2023/11/02 06:20:15;;;;;;;3.42;0.90;;;10.90;99.90;;;;;;5074663;28;20089;-73
2023/11/02 06:22:41;;;;;;;3.17;0.95;;;10.90;99.90;;;;;;5074303;28;20075;-73
2023/11/02 06:25:08;;;;;;;1.48;0.85;;;10.90;99.90;;;;;;5092615;28;20048;-73
2023/11/02 06:27:33;;;;;;;1.88;0.90;;;10.90;99.90;;;;;;5092861;28;20050;-73
2023/11/02 06:29:59;;;;;;;4.15;1.10;;;11.00;99.90;;;;;;5092437;28;20111;-72
2023/11/02 06:32:25;;;;;;;5.03;1.80;;;11.00;99.90;;;;;;5092301;28;20044;-73
2023/11/02 06:34:50;;;;;;;3.67;1.25;;;11.00;99.90;;;;;;5092629;28;20036;-73
2023/11/02 06:37:19;;;;;;;7.65;1.02;;;11.10;99.90;;;;;;5092437;28;20408;-73
2023/11/02 06:39:45;;;;;;;2.42;0.80;;;11.10;99.90;;;;;;5092331;28;20044;-73
2023/11/02 06:42:12;;;;;;;3.60;0.88;;;11.20;99.90;;;;;;5074237;28;20123;-72
2023/11/02 06:44:43;;;;;;;3.72;0.80;;;11.10;99.90;;;;;;5092345;28;20560;-72
2023/11/02 06:47:09;;;;;;;6.55;1.10;;;11.10;99.90;;;;;;5092416;28;20104;-72
2023/11/02 06:49:35;;;;;;;1.85;0.82;;;11.10;99.90;;;;;;5092038;28;20070;-72
2023/11/02 06:52:02;;;;;;;4.13;1.27;;;11.10;99.90;;;;;;5091689;28;20490;-72
2023/11/02 06:54:28;;;;;;;2.50;0.73;;;11.10;99.90;;;;;;5092332;28;20115;-72
2023/11/02 06:56:54;;;;;;;1.20;0.90;;;11.10;99.90;;;;;;5092257;28;20047;-72
2023/11/02 06:59:19;;;;;;;2.38;1.10;;;11.00;99.90;;;;;;5092275;28;20028;-72
2023/11/02 07:01:46;;;;;;;2.85;0.85;;;11.00;99.90;;;;;;5091117;28;20491;-72
2023/11/02 07:04:12;;;;;;;3.65;1.00;;;11.00;99.90;;;;;;5091885;28;20043;-73
2023/11/02 07:06:38;;;;;;;5.07;1.20;;;10.90;99.90;;;;;;5091806;28;20039;-73
2023/11/02 07:09:04;;;;;;;3.30;1.00;;;10.90;99.90;;;;;;5092171;28;20046;-73
2023/11/02 07:11:30;;;;;;;5.78;1.10;;;10.90;99.90;;;;;;5091669;28;20039;-73
2023/11/02 07:13:56;;;;;;;2.97;0.68;;;10.90;99.90;;;;;;5092126;28;20040;-73
2023/11/02 07:16:22;;;;;;;3.78;1.08;;;10.90;99.90;;;;;;5091821;28;20579;-72
2023/11/02 07:18:47;;;;;;;3.95;0.82;;;11.00;99.90;;;;;;5091861;28;20119;-73
2023/11/02 07:21:13;;;;;;;2.53;0.95;;;11.00;99.90;;;;;;5091508;28;20036;-73
2023/11/02 07:23:39;;;;;;;1.98;0.82;;;11.00;99.90;;;;;;5072576;28;20037;-73
2023/11/02 07:26:08;;;;;;;1.88;0.88;;;11.10;99.90;;;;;;5071960;28;20048;-72
2023/11/02 07:28:34;;;;;;;3.90;0.82;;;11.00;99.90;;;;;;5071546;28;20072;-73
2023/11/02 07:31:00;;;;;;;2.30;0.55;;;11.10;99.90;;;;;;5053709;28;20503;-72
2023/11/02 07:33:26;;;;;;;5.10;1.00;;;11.00;99.90;;;;;;5071033;28;20068;-72
2023/11/02 07:35:52;;;;;;;3.67;0.88;;;11.00;99.90;;;;;;5071420;28;20045;-72
2023/11/02 07:38:18;;;;;;;2.38;1.10;;;11.10;99.90;;;;;;5071617;28;20405;-72
2023/11/02 07:40:43;;;;;;;5.32;1.13;;;11.20;99.90;;;;;;5071603;28;20038;-73
2023/11/02 07:43:09;;;;;;;3.17;0.73;;;11.20;99.90;;;;;;5070945;28;20416;-72
2023/11/02 07:45:35;;;;;;;3.45;0.90;;;11.20;99.90;;;;;;5071515;28;20051;-72
2023/11/02 07:48:02;;;;;;;0.90;0.50;;;11.20;99.90;;;;;;5071183;28;20052;-72
2023/11/02 07:50:28;;;;;;;4.05;1.20;;;11.20;99.90;;;;;;5053594;28;20041;-72
2023/11/02 07:52:53;;;;;;;1.60;0.50;;;11.20;99.90;;;;;;5071000;28;20166;-73
2023/11/02 07:55:19;;;;;;;2.00;0.63;;;11.10;99.90;;;;;;5071397;28;20423;-73
2023/11/02 07:57:46;;;;;;;2.88;1.02;;;11.10;99.90;;;;;;5071414;28;20040;-73
2023/11/02 08:00:13;;;;;;;3.55;0.90;;;11.00;99.90;;;;;;5071655;28;20079;-73
2023/11/02 08:02:39;;;;;;;5.72;1.02;;;11.00;99.90;;;;;;5074654;28;20689;-73
2023/11/02 08:05:05;;;;;;;5.07;1.35;;;10.90;99.90;;;;;;5057040;28;20045;-73
2023/11/02 08:07:30;;;;;;;1.58;1.00;;;10.90;99.90;;;;;;5057279;28;20048;-72
2023/11/02 08:09:56;;;;;;;1.65;0.60;;;10.90;99.90;;;;;;5057034;28;20044;-72
2023/11/02 08:12:22;;;;;;;6.20;1.75;;;10.90;99.90;;;;;;5074414;28;20415;-73
2023/11/02 08:14:47;;;;;;;4.00;1.00;;;10.80;99.90;;;;;;5074984;28;20037;-73
2023/11/02 08:17:19;;;;;;;1.98;0.80;;;10.80;99.90;;;;;;5074717;28;20118;-73
2023/11/02 08:19:45;;;;;;;3.05;1.23;;;10.80;99.90;;;;;;5075033;28;20042;-73
2023/11/02 08:22:11;;;;;;;4.95;1.08;;;10.80;99.90;;;;;;5074714;28;20044;-73
2023/11/02 08:24:38;;;;;;;4.53;1.13;;;10.80;99.90;;;;;;5074881;28;20500;-73
2023/11/02 08:27:05;;;;;;;3.60;0.70;;;10.80;99.90;;;;;;5074796;28;20082;-73
2023/11/02 08:29:31;;;;;;;2.60;0.68;;;10.80;99.90;;;;;;5074631;28;20089;-72
2023/11/02 08:31:57;;;;;;;3.78;1.27;;;10.80;99.90;;;;;;5073573;28;20123;-72
2023/11/02 08:34:23;;;;;;;2.63;0.70;;;10.80;99.90;;;;;;5064988;28;20047;-72
2023/11/02 08:36:49;;;;;;;4.00;1.08;;;10.90;99.90;;;;;;5072668;28;20492;-73
2023/11/02 08:39:15;;;;;;;2.35;0.90;;;10.90;99.90;;;;;;5056484;28;20032;-77
2023/11/02 08:41:41;;;;;;;4.47;1.20;;;11.00;99.90;;;;;;5064636;28;20037;-73
2023/11/02 08:44:06;;;;;;;5.03;1.00;;;11.00;99.90;;;;;;5056731;28;20037;-70
2023/11/02 08:46:34;;;;;;;1.55;0.90;;;11.10;99.90;;;;;;5063945;28;20029;-71
2023/11/02 08:49:00;;;;;;;1.55;0.90;;;11.10;99.90;;;;;;5065018;28;20055;-71
2023/11/02 08:51:25;;;;;;;1.58;0.80;;;11.10;99.90;;;;;;5062673;28;20037;-71
2023/11/02 08:53:52;;;;;;;2.90;0.95;;;11.20;99.90;;;;;;5063600;28;20488;-71
2023/11/02 08:56:18;;;;;;;2.03;0.80;;;11.30;99.90;;;;;;5064631;28;20037;-71
2023/11/02 08:58:52;;;;;;;1.42;0.70;;;11.20;99.90;;;;;;5070024;28;20408;-71
2023/11/02 09:01:20;;;;;;;4.30;1.00;;;11.40;99.90;;;;;;5073472;28;20400;-71
2023/11/02 09:03:47;;;;;;;1.77;0.82;;;11.40;99.90;;;;;;5059187;28;20102;-71
2023/11/02 09:06:12;;;;;;;1.65;0.75;;;11.40;99.90;;;;;;5054397;28;20035;-71
2023/11/02 09:08:38;;;;;;;2.33;0.80;;;11.30;99.90;;;;;;5073853;28;20107;-70
2023/11/02 09:11:04;;;;;;;1.15;0.60;;;11.40;99.90;;;;;;5073570;28;20521;-70
2023/11/02 09:13:31;;;;;;;4.03;0.70;;;11.40;99.90;;;;;;5073737;28;20123;-71
2023/11/02 09:15:57;;;;;;;2.13;0.82;;;11.40;99.90;;;;;;5073764;28;20048;-71
2023/11/02 09:18:22;;;;;;;2.35;1.00;;;11.40;99.90;;;;;;5055836;28;20036;-70
2023/11/02 09:20:51;;;;;;;4.07;0.80;;;11.40;99.90;;;;;;5073866;28;20043;-70
2023/11/02 09:23:17;;;;;;;2.58;0.77;;;11.40;99.90;;;;;;5073622;28;20519;-70
2023/11/02 09:25:46;;;;;;;2.40;0.85;;;11.50;99.90;;;;;;5055888;28;20080;-71
2023/11/02 09:28:15;;;;;;;1.58;1.17;;;11.60;99.90;;;;;;5073480;28;20459;-71
2023/11/02 09:30:43;;;;;;;3.65;0.70;;;11.80;99.90;;;;;;5061320;28;20041;-71
2023/11/02 09:33:08;;;;;;;3.28;0.88;;;11.80;99.90;;;;;;5036640;28;20045;-71
2023/11/02 09:35:34;;;;;;;3.22;0.70;;;11.90;99.90;;;;;;5063368;28;20040;-71
2023/11/02 09:38:00;;;;;;;2.13;0.57;;;11.90;99.90;;;;;;5055379;28;20393;-71
2023/11/02 09:40:26;;;;;;;2.97;0.73;;;11.90;99.90;;;;;;5073193;28;20044;-70
2023/11/02 09:42:51;;;;;;;3.95;0.55;;;12.00;99.90;;;;;;5055254;28;20063;-71
2023/11/02 09:45:17;;;;;;;1.30;0.63;;;12.20;99.90;;;;;;5073348;28;20036;-71
2023/11/02 09:47:45;;;;;;;1.98;0.80;;;12.30;99.90;;;;;;5073355;28;20416;-71
2023/11/02 09:50:12;;;;;;;4.00;0.70;;;12.30;99.90;;;;;;5055312;28;20084;-70
2023/11/02 09:52:38;;;;;;;1.15;0.50;;;12.50;99.90;;;;;;5072901;28;20455;-71
2023/11/02 09:55:05;;;;;;;1.75;0.77;;;12.60;99.90;;;;;;5055160;28;20115;-71
2023/11/02 09:57:31;;;;;;;2.22;0.93;;;12.60;99.90;;;;;;5069382;28;20063;-70
2023/11/02 09:59:58;;;;;;;6.55;0.77;;;12.50;99.90;;;;;;5061765;28;20037;-71
2023/11/02 10:02:24;;;;;;;3.75;1.15;;;12.50;99.90;;;;;;5056673;28;20147;-70
2023/11/02 10:04:50;;;;;;;5.00;1.08;;;12.50;99.90;;;;;;5053039;28;20060;-71
2023/11/02 10:07:17;;;;;;;3.05;0.50;;;12.50;99.90;;;;;;5052914;28;20049;-70
2023/11/02 10:09:44;;;;;;;5.47;1.17;;;12.40;99.90;;;;;;5034941;28;20048;-70
2023/11/02 10:12:10;;;;;;;1.75;0.52;;;12.50;99.90;;;;;;5052625;28;20052;-70
2023/11/02 10:14:36;;;;;;;5.05;0.45;;;12.40;99.90;;;;;;5052937;28;20029;-70
2023/11/02 10:17:05;;;;;;;2.92;0.90;;;12.50;99.90;;;;;;5052694;28;20058;-71
2023/11/02 10:19:32;;;;;;;1.48;0.52;;;12.50;99.90;;;;;;5062557;28;20050;-70
2023/11/02 10:21:58;;;;;;;2.30;0.75;;;12.50;99.90;;;;;;5070833;28;20043;-71
2023/11/02 10:24:35;;;;;;;1.83;0.82;;;12.50;99.90;;;;;;5054082;28;20040;-71
2023/11/02 10:27:05;;;;;;;2.10;0.80;;;12.50;99.90;;;;;;5054770;28;20530;-71
2023/11/02 10:29:34;;;;;;;3.60;0.90;;;12.60;99.90;;;;;;5054479;28;20040;-71
2023/11/02 10:32:00;;;;;;;2.85;1.00;;;12.60;99.90;;;;;;5072019;28;20079;-71
2023/11/02 10:34:26;;;;;;;3.33;1.17;;;12.70;99.90;;;;;;5072350;28;20129;-70
2023/11/02 10:36:54;;;;;;;2.75;0.70;;;12.70;99.90;;;;;;5072245;28;20040;-71
2023/11/02 10:39:20;;;;;;;2.92;0.60;;;12.70;99.90;;;;;;5072400;28;20048;-71
2023/11/02 10:42:06;;;;;;;7.03;1.65;;;12.80;99.90;;;;;;5071967;28;20041;-71
2023/11/02 10:44:35;;;;;;;6.03;1.10;;;12.80;99.90;;;;;;5072225;28;20071;-70
2023/11/02 10:47:07;;;;;;;2.47;1.40;;;12.90;99.90;;;;;;5072082;28;20040;-71
2023/11/02 10:49:35;;;;;;;2.38;1.00;;;12.90;99.90;;;;;;5071979;28;20072;-71
2023/11/02 10:52:08;;;;;;;2.67;0.95;;;13.00;99.90;;;;;;5071825;28;20131;-70
2023/11/02 10:55:08;;;;;;;2.95;0.68;;;13.00;99.90;;;;;;5054253;28;20036;-71
2023/11/02 10:57:35;;;;;;;2.85;0.80;;;13.10;99.90;;;;;;5071915;28;20048;-70
2023/11/02 11:00:04;;;;;;;4.40;0.80;;;13.20;99.90;;;;;;5071823;28;20135;-70
2023/11/02 11:02:31;;;;;;;3.17;1.00;;;13.20;99.90;;;;;;5053735;28;20650;-71
2023/11/02 11:04:58;;;;;;;2.05;1.23;;;13.20;99.90;;;;;;5071920;28;20079;-70
2023/11/02 11:07:24;;;;;;;2.47;0.70;;;13.30;99.90;;;;;;5071716;28;20627;-71
2023/11/02 11:09:50;;;;;;;1.65;0.60;;;13.40;99.90;;;;;;5071677;28;20036;-70
2023/11/02 11:12:17;;;;;;;2.75;0.73;;;13.50;99.90;;;;;;5061908;28;20043;-70
2023/11/02 11:14:46;;;;;;;3.92;0.73;;;13.60;99.90;;;;;;5060978;28;20116;-71
2023/11/02 11:17:12;;;;;;;1.65;0.75;;;13.60;99.90;;;;;;5053974;28;20037;-71
2023/11/02 11:19:39;;;;;;;2.38;1.33;;;13.70;99.90;;;;;;5071791;28;20032;-71
2023/11/02 11:22:14;;;;;;;1.95;0.60;;;13.80;99.90;;;;;;5053507;28;20048;-70
2023/11/02 11:24:40;;;;;;;1.75;0.50;;;13.90;99.90;;;;;;5071602;28;20037;-71
2023/11/02 11:27:06;;;;;;;2.38;0.80;;;13.90;99.90;;;;;;5071435;28;20036;-71
2023/11/02 11:29:38;;;;;;;4.32;0.80;;;13.90;99.90;;;;;;5071704;28;20120;-71
2023/11/02 11:32:14;;;;;;;3.13;0.73;;;13.90;99.90;;;;;;5071337;28;20052;-70
2023/11/02 11:34:54;;;;;;;3.92;0.63;;;13.90;99.90;;;;;;5071693;28;20041;-71
2023/11/02 11:37:37;;;;;;;3.55;0.73;;;13.90;99.90;;;;;;5075438;28;20051;-71
2023/11/02 11:40:08;;;;;;;2.00;0.70;;;13.90;99.90;;;;;;5075737;28;20090;-71
2023/11/02 11:42:55;;;;;;;5.85;0.70;;;13.90;99.90;;;;;;5040925;28;20500;-71
2023/11/02 11:45:46;;;;;;;2.72;0.65;;;13.80;99.90;;;;;;5075572;28;20127;-71
2023/11/02 11:48:32;;;;;;;3.05;0.57;;;13.80;99.90;;;;;;5075822;28;20040;-71
2023/11/02 11:50:58;;;;;;;2.22;0.60;;;13.80;99.90;;;;;;5075278;28;20057;-71
2023/11/02 11:53:24;;;;;;;1.95;1.05;;;13.90;99.90;;;;;;5075559;28;20141;-71
2023/11/02 11:55:52;;;;;;;7.40;0.80;;;13.90;99.90;;;;;;5075463;28;20072;-71
2023/11/02 11:58:40;;;;;;;3.03;0.68;;;14.10;99.90;;;;;;5075235;28;20041;-71
2023/11/02 12:01:17;;;;;;;2.15;0.60;;;14.00;99.90;;;;;;5057031;28;20048;-71
2023/11/02 12:03:47;;;;;;;4.85;0.98;;;14.00;99.90;;;;;;5075225;28;20061;-71
2023/11/02 12:06:13;;;;;;;2.13;0.98;;;14.00;99.90;;;;;;5057172;28;20460;-71
2023/11/02 12:08:46;;;;;;;3.08;0.98;;;14.00;99.90;;;;;;5057056;28;20045;-70
2023/11/02 12:11:13;;;;;;;3.55;0.70;;;14.00;99.90;;;;;;5071847;28;20549;-70
2023/11/02 12:13:55;;;;;;;2.33;0.68;;;14.00;99.90;;;;;;5066300;28;20440;-70
2023/11/02 12:16:22;;;;;;;3.00;0.73;;;14.00;99.90;;;;;;5066180;28;20048;-71
2023/11/02 12:18:53;;;;;;;1.70;0.70;;;14.00;99.90;;;;;;5074781;28;20036;-71
2023/11/02 12:21:19;;;;;;;3.00;0.90;;;14.00;99.90;;;;;;5074687;28;20405;-71
2023/11/02 12:23:46;;;;;;;1.48;0.50;;;13.90;99.90;;;;;;5074845;28;20090;-72
2023/11/02 12:26:12;;;;;;;4.63;0.60;;;13.80;99.90;;;;;;5074755;28;20044;-71
2023/11/02 12:28:45;;;;;;;4.70;0.70;;;13.80;99.90;;;;;;5074794;28;20046;-71
2023/11/02 12:31:11;;;;;;;;;;;13.70;99.90;;;;;;5074800;28;20082;-71
2023/11/02 12:33:37;;;;;;;2.35;1.05;;;13.70;99.90;;;;;;5074449;28;19924;-71
2023/11/02 12:36:04;;;;;;;0.88;0.40;;;13.70;99.90;;;;;;5074759;28;20042;-71
2023/11/02 12:38:44;;;;;;;7.15;0.65;;;13.60;99.90;;;;;;5074665;28;20048;-72
2023/11/02 12:41:14;;;;;;;2.88;0.60;;;13.60;99.90;;;;;;5074166;28;20522;-71
2023/11/02 12:43:40;;;;;;;8.63;1.08;;;13.70;99.90;;;;;;5056591;28;20063;-71
2023/11/02 12:46:10;;;;;;;5.57;1.27;;;13.70;99.90;;;;;;5073901;28;20041;-70
2023/11/02 12:48:38;;;;;;;2.65;0.90;;;13.80;99.90;;;;;;5074267;28;20496;-69
2023/11/02 12:51:14;;;;;;;2.78;0.77;;;14.10;99.90;;;;;;5070241;28;20090;-68
2023/11/02 12:53:40;;;;;;;2.67;0.90;;;14.10;99.90;;;;;;5057713;28;20404;-70
2023/11/02 12:56:07;;;;;;;2.90;0.77;;;14.00;99.90;;;;;;5054333;28;20037;-71
2023/11/02 12:58:32;;;;;;;2.20;1.10;;;14.10;99.90;;;;;;5054372;28;20498;-69
2023/11/02 13:00:59;;;;;;;5.85;1.88;;;14.10;99.90;;;;;;5054231;28;20078;-70
2023/11/02 13:03:25;;;;;;;8.27;2.80;;;14.20;99.90;;;;;;5069330;28;20523;-70
2023/11/02 13:05:52;;;;;;;8.43;1.08;;;14.20;99.90;;;;;;5054252;28;20041;-69
2023/11/02 13:08:19;;;;;;;4.57;1.70;;;14.30;99.90;;;;;;5036369;28;20408;-70